sensor_id;sensor_type;location;lat;lon;timestamp;temperature;humidity
14122;DHT22;7139;48.114;11.442;2022-09-17T00:01:35;11.20;99.90
14122;DHT22;7139;48.114;11.442;2022-09-17T00:04:02;11.10;99.90
14122;DHT22;7139;48.114;11.442;2022-09-17T00:06:31;11.10;99.90
14122;DHT22;7139;48.114;11.442;2022-09-17T00:08:58;11.00;99.90
14122;DHT22;7139;48.114;11.442;2022-09-17T00:11:26;11.00;99.90
14122;DHT22;7139;48.114;11.442;2022-09-17T00:13:54;11.00;99.90
14122;DHT22;7139;48.114;11.442;2022-09-17T00:16:26;10.90;99.90
14122;DHT22;7139;48.114;11.442;2022-09-17T00:18:53;10.90;99.90
14122;DHT22;7139;48.114;11.442;2022-09-17T00:21:20;10.90;99.90
14122;DHT22;7139;48.114;11.442;2022-09-17T00:23:47;10.80;99.90
14122;DHT22;7139;48.114;11.442;2022-09-17T00:26:14;11.00;99.90
14122;DHT22;7139;48.114;11.442;2022-09-17T00:28:41;10.90;99.90
14122;DHT22;7139;48.114;11.442;2022-09-17T00:31:12;10.90;99.90
14122;DHT22;7139;48.114;11.442;2022-09-17T00:33:41;10.70;99.90
14122;DHT22;7139;48.114;11.442;2022-09-17T00:36:07;10.90;99.90
14122;DHT22;7139;48.114;11.442;2022-09-17T00:38:34;11.00;99.90
14122;DHT22;7139;48.114;11.442;2022-09-17T00:41:02;11.00;99.90
14122;DHT22;7139;48.114;11.442;2022-09-17T00:43:35;11.00;99.90
14122;DHT22;7139;48.114;11.442;2022-09-17T00:46:02;10.90;99.90
14122;DHT22;7139;48.114;11.442;2022-09-17T00:48:30;10.60;99.90
14122;DHT22;7139;48.114;11.442;2022-09-17T00:51:00;11.00;99.90
14122;DHT22;7139;48.114;11.442;2022-09-17T00:53:27;11.00;99.90
14122;DHT22;7139;48.114;11.442;2022-09-17T00:55:58;11.10;99.90
14122;DHT22;7139;48.114;11.442;2022-09-17T00:58:27;11.10;99.90
14122;DHT22;7139;48.114;11.442;2022-09-17T01:00:55;11.10;99.90
14122;DHT22;7139;48.114;11.442;2022-09-17T01:03:22;11.10;99.90
14122;DHT22;7139;48.114;11.442;2022-09-17T01:05:53;11.10;99.90
14122;DHT22;7139;48.114;11.442;2022-09-17T01:08:30;11.30;99.90
14122;DHT22;7139;48.114;11.442;2022-09-17T01:11:09;11.10;99.90
14122;DHT22;7139;48.114;11.442;2022-09-17T01:13:46;11.00;99.90
14122;DHT22;7139;48.114;11.442;2022-09-17T01:16:19;11.10;99.90
14122;DHT22;7139;48.114;11.442;2022-09-17T01:22:10;11.10;99.90
14122;DHT22;7139;48.114;11.442;2022-09-17T01:24:48;11.10;99.90
14122;DHT22;7139;48.114;11.442;2022-09-17T01:33:16;10.90;99.90
14122;DHT22;7139;48.114;11.442;2022-09-17T01:35:50;10.90;99.90
14122;DHT22;7139;48.114;11.442;2022-09-17T01:38:25;11.00;99.90
14122;DHT22;7139;48.114;11.442;2022-09-17T01:40:55;11.00;99.90
14122;DHT22;7139;48.114;11.442;2022-09-17T01:43:33;10.90;99.90
14122;DHT22;7139;48.114;11.442;2022-09-17T01:46:08;10.90;99.90
14122;DHT22;7139;48.114;11.442;2022-09-17T01:48:40;10.90;99.90
14122;DHT22;7139;48.114;11.442;2022-09-17T01:51:10;10.90;99.90
14122;DHT22;7139;48.114;11.442;2022-09-17T01:53:43;10.90;99.90
14122;DHT22;7139;48.114;11.442;2022-09-17T01:56:14;10.80;99.90
14122;DHT22;7139;48.114;11.442;2022-09-17T01:58:48;10.80;99.90
14122;DHT22;7139;48.114;11.442;2022-09-17T02:01:19;10.90;99.90
14122;DHT22;7139;48.114;11.442;2022-09-17T02:03:53;10.80;99.90
14122;DHT22;7139;48.114;11.442;2022-09-17T02:06:22;10.80;99.90
14122;DHT22;7139;48.114;11.442;2022-09-17T02:08:55;10.90;99.90
14122;DHT22;7139;48.114;11.442;2022-09-17T02:11:22;10.90;99.90
14122;DHT22;7139;48.114;11.442;2022-09-17T02:13:53;10.90;99.90
14122;DHT22;7139;48.114;11.442;2022-09-17T02:16:25;10.70;99.90
14122;DHT22;7139;48.114;11.442;2022-09-17T02:18:55;11.00;99.90
14122;DHT22;7139;48.114;11.442;2022-09-17T02:21:29;10.90;99.90
14122;DHT22;7139;48.114;11.442;2022-09-17T02:24:03;10.90;99.90
14122;DHT22;7139;48.114;11.442;2022-09-17T02:26:33;10.90;99.90
14122;DHT22;7139;48.114;11.442;2022-09-17T02:29:07;10.90;99.90
14122;DHT22;7139;48.114;11.442;2022-09-17T02:31:36;10.90;99.90
14122;DHT22;7139;48.114;11.442;2022-09-17T02:34:06;11.10;99.90
14122;DHT22;7139;48.114;11.442;2022-09-17T02:36:33;10.90;99.90
14122;DHT22;7139;48.114;11.442;2022-09-17T02:39:02;10.70;99.90
14122;DHT22;7139;48.114;11.442;2022-09-17T02:41:37;10.90;99.90
14122;DHT22;7139;48.114;11.442;2022-09-17T02:44:12;10.80;99.90
14122;DHT22;7139;48.114;11.442;2022-09-17T02:47:16;10.70;99.90
14122;DHT22;7139;48.114;11.442;2022-09-17T02:52:56;10.80;99.90
14122;DHT22;7139;48.114;11.442;2022-09-17T02:55:30;10.70;99.90
14122;DHT22;7139;48.114;11.442;2022-09-17T02:58:04;10.60;99.90
14122;DHT22;7139;48.114;11.442;2022-09-17T03:00:35;10.60;99.90
14122;DHT22;7139;48.114;11.442;2022-09-17T03:03:08;11.50;99.90
14122;DHT22;7139;48.114;11.442;2022-09-17T03:05:38;10.50;99.90
14122;DHT22;7139;48.114;11.442;2022-09-17T03:08:07;10.40;99.90
14122;DHT22;7139;48.114;11.442;2022-09-17T03:13:02;10.50;99.90
14122;DHT22;7139;48.114;11.442;2022-09-17T03:15:28;10.40;99.90
14122;DHT22;7139;48.114;11.442;2022-09-17T03:17:55;10.40;99.90
14122;DHT22;7139;48.114;11.442;2022-09-17T03:20:23;10.40;99.90
14122;DHT22;7139;48.114;11.442;2022-09-17T03:22:51;10.30;99.90
14122;DHT22;7139;48.114;11.442;2022-09-17T03:25:17;10.30;99.90
14122;DHT22;7139;48.114;11.442;2022-09-17T03:27:44;10.30;99.90
14122;DHT22;7139;48.114;11.442;2022-09-17T03:30:12;10.40;99.90
14122;DHT22;7139;48.114;11.442;2022-09-17T03:32:39;10.30;99.90
14122;DHT22;7139;48.114;11.442;2022-09-17T03:35:06;10.60;99.90
14122;DHT22;7139;48.114;11.442;2022-09-17T03:37:34;10.30;99.90
14122;DHT22;7139;48.114;11.442;2022-09-17T03:40:01;10.20;99.90
14122;DHT22;7139;48.114;11.442;2022-09-17T03:42:28;10.20;99.90
14122;DHT22;7139;48.114;11.442;2022-09-17T03:44:55;10.20;99.90
14122;DHT22;7139;48.114;11.442;2022-09-17T03:47:22;10.00;99.90
14122;DHT22;7139;48.114;11.442;2022-09-17T03:49:48;10.20;99.90
14122;DHT22;7139;48.114;11.442;2022-09-17T03:52:16;10.10;99.90
14122;DHT22;7139;48.114;11.442;2022-09-17T03:54:44;10.20;99.90
14122;DHT22;7139;48.114;11.442;2022-09-17T03:57:11;10.20;99.90
14122;DHT22;7139;48.114;11.442;2022-09-17T03:59:38;10.10;99.90
14122;DHT22;7139;48.114;11.442;2022-09-17T04:02:05;10.00;99.90
14122;DHT22;7139;48.114;11.442;2022-09-17T04:04:32;10.10;99.90
14122;DHT22;7139;48.114;11.442;2022-09-17T04:06:58;10.00;99.90
14122;DHT22;7139;48.114;11.442;2022-09-17T04:09:25;9.90;99.90
14122;DHT22;7139;48.114;11.442;2022-09-17T04:11:53;9.90;99.90
14122;DHT22;7139;48.114;11.442;2022-09-17T04:14:20;10.00;99.90
14122;DHT22;7139;48.114;11.442;2022-09-17T04:16:46;10.00;99.90
14122;DHT22;7139;48.114;11.442;2022-09-17T04:19:13;10.00;99.90
14122;DHT22;7139;48.114;11.442;2022-09-17T04:21:40;10.40;99.90
14122;DHT22;7139;48.114;11.442;2022-09-17T04:24:07;10.10;99.90
14122;DHT22;7139;48.114;11.442;2022-09-17T04:26:33;10.10;99.90
14122;DHT22;7139;48.114;11.442;2022-09-17T04:29:01;10.20;99.90
14122;DHT22;7139;48.114;11.442;2022-09-17T04:31:28;10.10;99.90
14122;DHT22;7139;48.114;11.442;2022-09-17T04:33:55;10.00;99.90
14122;DHT22;7139;48.114;11.442;2022-09-17T04:36:22;10.00;99.90
14122;DHT22;7139;48.114;11.442;2022-09-17T04:38:48;10.10;99.90
14122;DHT22;7139;48.114;11.442;2022-09-17T04:41:15;10.00;99.90
14122;DHT22;7139;48.114;11.442;2022-09-17T04:43:42;10.00;99.90
14122;DHT22;7139;48.114;11.442;2022-09-17T04:46:10;10.00;99.90
14122;DHT22;7139;48.114;11.442;2022-09-17T04:48:38;9.90;99.90
14122;DHT22;7139;48.114;11.442;2022-09-17T04:51:05;10.00;99.90
14122;DHT22;7139;48.114;11.442;2022-09-17T04:53:32;10.00;99.90
14122;DHT22;7139;48.114;11.442;2022-09-17T04:55:58;10.00;99.90
14122;DHT22;7139;48.114;11.442;2022-09-17T04:58:25;11.00;99.90
14122;DHT22;7139;48.114;11.442;2022-09-17T05:00:55;9.90;99.90
14122;DHT22;7139;48.114;11.442;2022-09-17T05:03:23;10.00;99.90
14122;DHT22;7139;48.114;11.442;2022-09-17T05:05:50;10.10;99.90
14122;DHT22;7139;48.114;11.442;2022-09-17T05:08:17;10.10;99.90
14122;DHT22;7139;48.114;11.442;2022-09-17T05:10:43;10.20;99.90
14122;DHT22;7139;48.114;11.442;2022-09-17T05:13:10;10.20;99.90
14122;DHT22;7139;48.114;11.442;2022-09-17T05:15:37;10.20;99.90
14122;DHT22;7139;48.114;11.442;2022-09-17T05:18:03;10.20;99.90
14122;DHT22;7139;48.114;11.442;2022-09-17T05:20:31;10.20;99.90
14122;DHT22;7139;48.114;11.442;2022-09-17T05:25:25;10.10;99.90
14122;DHT22;7139;48.114;11.442;2022-09-17T05:27:52;10.10;99.90
14122;DHT22;7139;48.114;11.442;2022-09-17T05:30:21;9.20;99.90
14122;DHT22;7139;48.114;11.442;2022-09-17T05:32:47;9.20;99.90
14122;DHT22;7139;48.114;11.442;2022-09-17T05:35:15;10.40;99.90
14122;DHT22;7139;48.114;11.442;2022-09-17T05:37:43;10.10;99.90
14122;DHT22;7139;48.114;11.442;2022-09-17T05:40:10;10.00;99.90
14122;DHT22;7139;48.114;11.442;2022-09-17T05:42:36;10.00;99.90
14122;DHT22;7139;48.114;11.442;2022-09-17T05:45:04;9.90;99.90
14122;DHT22;7139;48.114;11.442;2022-09-17T05:47:31;10.20;99.90
14122;DHT22;7139;48.114;11.442;2022-09-17T05:49:59;9.90;99.90
14122;DHT22;7139;48.114;11.442;2022-09-17T05:52:26;9.90;99.90
14122;DHT22;7139;48.114;11.442;2022-09-17T05:54:55;9.90;99.90
14122;DHT22;7139;48.114;11.442;2022-09-17T05:57:22;9.90;99.90
14122;DHT22;7139;48.114;11.442;2022-09-17T05:59:48;9.90;99.90
14122;DHT22;7139;48.114;11.442;2022-09-17T06:02:15;9.90;99.90
14122;DHT22;7139;48.114;11.442;2022-09-17T06:04:42;9.90;99.90
14122;DHT22;7139;48.114;11.442;2022-09-17T06:07:08;10.00;99.90
14122;DHT22;7139;48.114;11.442;2022-09-17T06:09:35;10.00;99.90
14122;DHT22;7139;48.114;11.442;2022-09-17T06:12:05;10.00;99.90
14122;DHT22;7139;48.114;11.442;2022-09-17T06:14:32;10.00;99.90
14122;DHT22;7139;48.114;11.442;2022-09-17T06:16:58;10.00;99.90
14122;DHT22;7139;48.114;11.442;2022-09-17T06:19:26;10.30;99.90
14122;DHT22;7139;48.114;11.442;2022-09-17T06:21:53;10.20;99.90
14122;DHT22;7139;48.114;11.442;2022-09-17T06:24:20;10.10;99.90
14122;DHT22;7139;48.114;11.442;2022-09-17T06:26:46;10.10;99.90
14122;DHT22;7139;48.114;11.442;2022-09-17T06:29:14;9.20;99.90
14122;DHT22;7139;48.114;11.442;2022-09-17T06:31:42;10.10;99.90
14122;DHT22;7139;48.114;11.442;2022-09-17T06:34:09;10.20;99.90
14122;DHT22;7139;48.114;11.442;2022-09-17T06:36:36;10.10;99.90
14122;DHT22;7139;48.114;11.442;2022-09-17T06:39:03;10.00;99.90
14122;DHT22;7139;48.114;11.442;2022-09-17T06:41:29;10.00;99.90
14122;DHT22;7139;48.114;11.442;2022-09-17T06:43:57;10.00;99.90
14122;DHT22;7139;48.114;11.442;2022-09-17T06:46:25;10.20;99.90
14122;DHT22;7139;48.114;11.442;2022-09-17T06:48:52;10.00;99.90
14122;DHT22;7139;48.114;11.442;2022-09-17T06:51:19;10.00;99.90
14122;DHT22;7139;48.114;11.442;2022-09-17T06:53:47;9.90;99.90
14122;DHT22;7139;48.114;11.442;2022-09-17T06:56:14;10.00;99.90
14122;DHT22;7139;48.114;11.442;2022-09-17T06:58:41;10.00;99.90
14122;DHT22;7139;48.114;11.442;2022-09-17T07:01:08;9.90;99.90
14122;DHT22;7139;48.114;11.442;2022-09-17T07:03:37;9.90;99.90
14122;DHT22;7139;48.114;11.442;2022-09-17T07:06:07;9.90;99.90
14122;DHT22;7139;48.114;11.442;2022-09-17T07:08:35;10.00;99.90
14122;DHT22;7139;48.114;11.442;2022-09-17T07:11:02;10.10;99.90
14122;DHT22;7139;48.114;11.442;2022-09-17T07:13:29;10.10;99.90
14122;DHT22;7139;48.114;11.442;2022-09-17T07:15:57;10.10;99.90
14122;DHT22;7139;48.114;11.442;2022-09-17T07:18:24;10.00;99.90
14122;DHT22;7139;48.114;11.442;2022-09-17T07:20:53;9.30;99.90
14122;DHT22;7139;48.114;11.442;2022-09-17T07:23:21;9.70;99.90
14122;DHT22;7139;48.114;11.442;2022-09-17T07:25:51;10.10;99.90
14122;DHT22;7139;48.114;11.442;2022-09-17T07:28:18;10.20;99.90
14122;DHT22;7139;48.114;11.442;2022-09-17T07:30:45;10.20;99.90
14122;DHT22;7139;48.114;11.442;2022-09-17T07:33:12;10.30;99.90
14122;DHT22;7139;48.114;11.442;2022-09-17T07:35:38;10.20;99.90
14122;DHT22;7139;48.114;11.442;2022-09-17T07:38:07;10.20;99.90
14122;DHT22;7139;48.114;11.442;2022-09-17T07:40:33;9.60;99.90
14122;DHT22;7139;48.114;11.442;2022-09-17T07:43:00;10.60;99.90
14122;DHT22;7139;48.114;11.442;2022-09-17T07:45:27;10.40;99.90
14122;DHT22;7139;48.114;11.442;2022-09-17T07:47:53;10.40;99.90
14122;DHT22;7139;48.114;11.442;2022-09-17T07:50:20;10.50;99.90
14122;DHT22;7139;48.114;11.442;2022-09-17T07:55:15;10.70;99.90
14122;DHT22;7139;48.114;11.442;2022-09-17T07:57:42;10.50;99.90
14122;DHT22;7139;48.114;11.442;2022-09-17T08:00:09;11.10;99.90
14122;DHT22;7139;48.114;11.442;2022-09-17T08:02:36;10.50;99.90
14122;DHT22;7139;48.114;11.442;2022-09-17T08:05:04;10.70;99.90
14122;DHT22;7139;48.114;11.442;2022-09-17T08:07:30;10.00;99.90
14122;DHT22;7139;48.114;11.442;2022-09-17T08:09:57;10.70;99.90
14122;DHT22;7139;48.114;11.442;2022-09-17T08:12:26;11.00;99.90
14122;DHT22;7139;48.114;11.442;2022-09-17T08:17:19;13.40;99.90
14122;DHT22;7139;48.114;11.442;2022-09-17T08:19:46;11.50;99.90
14122;DHT22;7139;48.114;11.442;2022-09-17T08:22:13;11.40;99.90
14122;DHT22;7139;48.114;11.442;2022-09-17T08:24:39;13.90;99.90
14122;DHT22;7139;48.114;11.442;2022-09-17T08:27:07;11.50;99.90
14122;DHT22;7139;48.114;11.442;2022-09-17T08:29:34;11.00;99.90
14122;DHT22;7139;48.114;11.442;2022-09-17T08:32:02;11.10;99.90
14122;DHT22;7139;48.114;11.442;2022-09-17T08:34:28;11.10;99.90
14122;DHT22;7139;48.114;11.442;2022-09-17T08:36:55;11.20;99.90
14122;DHT22;7139;48.114;11.442;2022-09-17T08:41:56;12.40;99.90
14122;DHT22;7139;48.114;11.442;2022-09-17T08:47:00;10.60;99.90
14122;DHT22;7139;48.114;11.442;2022-09-17T08:49:33;13.40;99.90
14122;DHT22;7139;48.114;11.442;2022-09-17T08:52:23;13.80;99.90
14122;DHT22;7139;48.114;11.442;2022-09-17T08:54:57;13.60;99.90
14122;DHT22;7139;48.114;11.442;2022-09-17T08:57:35;13.40;99.90
14122;DHT22;7139;48.114;11.442;2022-09-17T09:00:09;10.90;99.90
14122;DHT22;7139;48.114;11.442;2022-09-17T09:02:55;10.80;99.90
14122;DHT22;7139;48.114;11.442;2022-09-17T09:05:28;10.80;99.90
14122;DHT22;7139;48.114;11.442;2022-09-17T09:08:02;10.70;99.90
14122;DHT22;7139;48.114;11.442;2022-09-17T09:10:34;10.70;99.90
14122;DHT22;7139;48.114;11.442;2022-09-17T09:13:03;10.80;99.90
14122;DHT22;7139;48.114;11.442;2022-09-17T09:15:40;11.30;99.90
14122;DHT22;7139;48.114;11.442;2022-09-17T09:18:16;10.80;99.90
14122;DHT22;7139;48.114;11.442;2022-09-17T09:20:48;10.90;99.90
14122;DHT22;7139;48.114;11.442;2022-09-17T09:23:19;11.50;99.90
14122;DHT22;7139;48.114;11.442;2022-09-17T09:25:53;11.30;99.90
14122;DHT22;7139;48.114;11.442;2022-09-17T09:28:39;11.00;99.90
14122;DHT22;7139;48.114;11.442;2022-09-17T09:31:20;10.90;99.90
14122;DHT22;7139;48.114;11.442;2022-09-17T09:33:50;10.90;99.90
14122;DHT22;7139;48.114;11.442;2022-09-17T09:36:17;11.00;99.90
14122;DHT22;7139;48.114;11.442;2022-09-17T09:38:50;11.00;99.90
14122;DHT22;7139;48.114;11.442;2022-09-17T09:41:26;11.00;99.90
14122;DHT22;7139;48.114;11.442;2022-09-17T09:44:00;11.20;99.90
14122;DHT22;7139;48.114;11.442;2022-09-17T09:46:50;11.20;99.90
14122;DHT22;7139;48.114;11.442;2022-09-17T09:49:32;11.30;99.90
14122;DHT22;7139;48.114;11.442;2022-09-17T09:52:10;11.10;99.90
14122;DHT22;7139;48.114;11.442;2022-09-17T09:54:51;11.40;99.90
14122;DHT22;7139;48.114;11.442;2022-09-17T09:57:33;11.00;99.90
14122;DHT22;7139;48.114;11.442;2022-09-17T10:00:20;13.10;99.90
14122;DHT22;7139;48.114;11.442;2022-09-17T10:02:54;10.90;99.90
14122;DHT22;7139;48.114;11.442;2022-09-17T10:05:24;11.10;99.90
14122;DHT22;7139;48.114;11.442;2022-09-17T10:07:50;10.50;99.90
14122;DHT22;7139;48.114;11.442;2022-09-17T10:10:18;10.70;99.90
14122;DHT22;7139;48.114;11.442;2022-09-17T10:12:44;10.30;99.90
14122;DHT22;7139;48.114;11.442;2022-09-17T10:15:24;10.40;99.90
14122;DHT22;7139;48.114;11.442;2022-09-17T10:18:10;10.30;99.90
14122;DHT22;7139;48.114;11.442;2022-09-17T10:20:50;10.30;99.90
14122;DHT22;7139;48.114;11.442;2022-09-17T10:23:17;10.30;99.90
14122;DHT22;7139;48.114;11.442;2022-09-17T10:25:44;10.30;99.90
14122;DHT22;7139;48.114;11.442;2022-09-17T10:28:31;10.30;99.90
14122;DHT22;7139;48.114;11.442;2022-09-17T10:31:00;10.30;99.90
14122;DHT22;7139;48.114;11.442;2022-09-17T10:33:28;10.30;99.90
14122;DHT22;7139;48.114;11.442;2022-09-17T10:36:02;10.30;99.90
14122;DHT22;7139;48.114;11.442;2022-09-17T10:38:33;10.30;99.90
14122;DHT22;7139;48.114;11.442;2022-09-17T10:41:11;10.20;99.90
14122;DHT22;7139;48.114;11.442;2022-09-17T10:43:39;10.10;99.90
14122;DHT22;7139;48.114;11.442;2022-09-17T10:46:09;10.10;99.90
14122;DHT22;7139;48.114;11.442;2022-09-17T10:48:43;10.10;99.90
14122;DHT22;7139;48.114;11.442;2022-09-17T10:51:19;10.20;99.90
14122;DHT22;7139;48.114;11.442;2022-09-17T10:54:04;10.20;99.90
14122;DHT22;7139;48.114;11.442;2022-09-17T10:56:33;10.30;99.90
14122;DHT22;7139;48.114;11.442;2022-09-17T10:59:09;10.70;99.90
14122;DHT22;7139;48.114;11.442;2022-09-17T11:01:51;10.40;99.90
14122;DHT22;7139;48.114;11.442;2022-09-17T11:04:26;10.60;99.90
14122;DHT22;7139;48.114;11.442;2022-09-17T11:07:12;10.30;99.90
14122;DHT22;7139;48.114;11.442;2022-09-17T11:09:53;10.00;99.90
14122;DHT22;7139;48.114;11.442;2022-09-17T11:12:30;10.00;99.90
14122;DHT22;7139;48.114;11.442;2022-09-17T11:15:03;10.40;99.90
14122;DHT22;7139;48.114;11.442;2022-09-17T11:17:56;10.00;99.90
14122;DHT22;7139;48.114;11.442;2022-09-17T11:20:35;9.90;99.90
14122;DHT22;7139;48.114;11.442;2022-09-17T11:23:24;9.90;99.90
14122;DHT22;7139;48.114;11.442;2022-09-17T11:25:56;10.40;99.90
14122;DHT22;7139;48.114;11.442;2022-09-17T11:28:37;10.10;99.90
14122;DHT22;7139;48.114;11.442;2022-09-17T11:31:17;9.90;99.90
14122;DHT22;7139;48.114;11.442;2022-09-17T11:36:55;10.30;99.90
14122;DHT22;7139;48.114;11.442;2022-09-17T11:39:30;10.20;99.90
14122;DHT22;7139;48.114;11.442;2022-09-17T11:42:00;10.70;99.90
14122;DHT22;7139;48.114;11.442;2022-09-17T11:44:31;11.20;99.90
14122;DHT22;7139;48.114;11.442;2022-09-17T11:47:06;10.40;99.90
14122;DHT22;7139;48.114;11.442;2022-09-17T11:49:38;10.20;99.90
14122;DHT22;7139;48.114;11.442;2022-09-17T11:52:12;10.90;99.90
14122;DHT22;7139;48.114;11.442;2022-09-17T11:54:46;9.90;99.90
14122;DHT22;7139;48.114;11.442;2022-09-17T11:57:17;11.00;99.90
14122;DHT22;7139;48.114;11.442;2022-09-17T11:59:49;11.00;99.90
14122;DHT22;7139;48.114;11.442;2022-09-17T12:02:22;10.20;99.90
14122;DHT22;7139;48.114;11.442;2022-09-17T12:04:56;10.20;99.90
14122;DHT22;7139;48.114;11.442;2022-09-17T12:07:34;10.40;99.90
14122;DHT22;7139;48.114;11.442;2022-09-17T12:10:23;10.90;99.90
14122;DHT22;7139;48.114;11.442;2022-09-17T12:12:56;10.60;99.90
14122;DHT22;7139;48.114;11.442;2022-09-17T12:15:27;10.50;99.90
14122;DHT22;7139;48.114;11.442;2022-09-17T12:18:01;10.40;99.90
14122;DHT22;7139;48.114;11.442;2022-09-17T12:20:31;10.50;99.90
14122;DHT22;7139;48.114;11.442;2022-09-17T12:23:03;10.50;99.90
14122;DHT22;7139;48.114;11.442;2022-09-17T12:25:37;10.70;99.90
14122;DHT22;7139;48.114;11.442;2022-09-17T12:28:08;10.60;99.90
14122;DHT22;7139;48.114;11.442;2022-09-17T12:30:40;10.40;99.90
14122;DHT22;7139;48.114;11.442;2022-09-17T12:33:20;10.10;99.90
14122;DHT22;7139;48.114;11.442;2022-09-17T12:39:01;11.30;99.90
14122;DHT22;7139;48.114;11.442;2022-09-17T12:41:41;10.50;99.90
14122;DHT22;7139;48.114;11.442;2022-09-17T12:44:22;9.40;99.90
14122;DHT22;7139;48.114;11.442;2022-09-17T12:47:02;10.30;99.90
14122;DHT22;7139;48.114;11.442;2022-09-17T12:49:44;10.50;99.90
14122;DHT22;7139;48.114;11.442;2022-09-17T12:52:24;10.90;99.90
14122;DHT22;7139;48.114;11.442;2022-09-17T12:55:16;11.30;99.90
14122;DHT22;7139;48.114;11.442;2022-09-17T12:57:58;11.20;99.90
14122;DHT22;7139;48.114;11.442;2022-09-17T13:00:26;11.80;99.90
14122;DHT22;7139;48.114;11.442;2022-09-17T13:02:59;11.70;99.90
14122;DHT22;7139;48.114;11.442;2022-09-17T13:05:50;12.30;99.90
14122;DHT22;7139;48.114;11.442;2022-09-17T13:11:57;12.10;99.90
14122;DHT22;7139;48.114;11.442;2022-09-17T13:14:47;12.30;99.90
14122;DHT22;7139;48.114;11.442;2022-09-17T13:17:19;12.30;99.90
14122;DHT22;7139;48.114;11.442;2022-09-17T13:19:55;12.20;99.90
14122;DHT22;7139;48.114;11.442;2022-09-17T13:22:28;13.40;99.90
14122;DHT22;7139;48.114;11.442;2022-09-17T13:25:03;12.20;99.90
14122;DHT22;7139;48.114;11.442;2022-09-17T13:27:31;12.30;99.90
14122;DHT22;7139;48.114;11.442;2022-09-17T13:30:04;12.00;99.90
14122;DHT22;7139;48.114;11.442;2022-09-17T13:32:42;13.90;99.90
14122;DHT22;7139;48.114;11.442;2022-09-17T13:35:46;11.50;99.90
14122;DHT22;7139;48.114;11.442;2022-09-17T13:38:14;11.60;99.90
14122;DHT22;7139;48.114;11.442;2022-09-17T13:40:42;12.30;99.90
14122;DHT22;7139;48.114;11.442;2022-09-17T13:43:11;11.00;99.90
14122;DHT22;7139;48.114;11.442;2022-09-17T13:46:06;11.50;99.90
14122;DHT22;7139;48.114;11.442;2022-09-17T13:48:42;11.50;99.90
14122;DHT22;7139;48.114;11.442;2022-09-17T13:54:35;12.00;99.90
14122;DHT22;7139;48.114;11.442;2022-09-17T13:57:09;12.10;99.90
14122;DHT22;7139;48.114;11.442;2022-09-17T13:59:37;12.60;99.90
14122;DHT22;7139;48.114;11.442;2022-09-17T14:02:31;12.10;99.90
14122;DHT22;7139;48.114;11.442;2022-09-17T14:08:25;11.70;99.90
14122;DHT22;7139;48.114;11.442;2022-09-17T14:10:57;12.00;99.90
14122;DHT22;7139;48.114;11.442;2022-09-17T14:16:33;12.40;99.90
14122;DHT22;7139;48.114;11.442;2022-09-17T14:19:04;12.50;99.90
14122;DHT22;7139;48.114;11.442;2022-09-17T14:21:44;12.60;99.90
14122;DHT22;7139;48.114;11.442;2022-09-17T14:24:23;12.60;99.90
14122;DHT22;7139;48.114;11.442;2022-09-17T14:27:11;12.60;99.90
14122;DHT22;7139;48.114;11.442;2022-09-17T14:30:10;12.00;99.90
14122;DHT22;7139;48.114;11.442;2022-09-17T14:32:41;12.90;99.90
14122;DHT22;7139;48.114;11.442;2022-09-17T14:35:16;12.50;99.90
14122;DHT22;7139;48.114;11.442;2022-09-17T14:37:48;12.40;99.90
14122;DHT22;7139;48.114;11.442;2022-09-17T14:40:17;12.50;99.90
14122;DHT22;7139;48.114;11.442;2022-09-17T14:42:45;12.50;99.90
14122;DHT22;7139;48.114;11.442;2022-09-17T14:45:16;12.40;99.90
14122;DHT22;7139;48.114;11.442;2022-09-17T14:47:45;12.40;99.90
14122;DHT22;7139;48.114;11.442;2022-09-17T14:50:21;12.20;99.90
14122;DHT22;7139;48.114;11.442;2022-09-17T14:52:49;12.80;99.90
14122;DHT22;7139;48.114;11.442;2022-09-17T14:55:18;12.30;99.90
14122;DHT22;7139;48.114;11.442;2022-09-17T14:57:47;11.70;99.90
14122;DHT22;7139;48.114;11.442;2022-09-17T15:00:20;11.60;99.90
14122;DHT22;7139;48.114;11.442;2022-09-17T15:02:50;11.60;99.90
14122;DHT22;7139;48.114;11.442;2022-09-17T15:05:24;10.60;99.90
14122;DHT22;7139;48.114;11.442;2022-09-17T15:08:02;11.30;99.90
14122;DHT22;7139;48.114;11.442;2022-09-17T15:10:30;11.10;99.90
14122;DHT22;7139;48.114;11.442;2022-09-17T15:12:57;11.20;99.90
14122;DHT22;7139;48.114;11.442;2022-09-17T15:15:25;11.00;99.90
14122;DHT22;7139;48.114;11.442;2022-09-17T15:17:52;10.90;99.90
14122;DHT22;7139;48.114;11.442;2022-09-17T15:20:23;10.60;99.90
14122;DHT22;7139;48.114;11.442;2022-09-17T15:22:57;10.70;99.90
14122;DHT22;7139;48.114;11.442;2022-09-17T15:25:28;10.40;99.90
14122;DHT22;7139;48.114;11.442;2022-09-17T15:27:57;10.10;99.90
14122;DHT22;7139;48.114;11.442;2022-09-17T15:30:30;9.50;99.90
14122;DHT22;7139;48.114;11.442;2022-09-17T15:32:58;10.30;99.90
14122;DHT22;7139;48.114;11.442;2022-09-17T15:35:27;10.30;99.90
14122;DHT22;7139;48.114;11.442;2022-09-17T15:37:56;10.40;99.90
14122;DHT22;7139;48.114;11.442;2022-09-17T15:40:26;10.20;99.90
14122;DHT22;7139;48.114;11.442;2022-09-17T15:43:12;10.20;99.90
14122;DHT22;7139;48.114;11.442;2022-09-17T15:45:40;9.90;99.90
14122;DHT22;7139;48.114;11.442;2022-09-17T15:48:21;10.20;99.90
14122;DHT22;7139;48.114;11.442;2022-09-17T15:50:51;10.50;99.90
14122;DHT22;7139;48.114;11.442;2022-09-17T15:53:22;10.60;99.90
14122;DHT22;7139;48.114;11.442;2022-09-17T15:56:05;10.50;99.90
14122;DHT22;7139;48.114;11.442;2022-09-17T15:58:35;10.90;99.90
14122;DHT22;7139;48.114;11.442;2022-09-17T16:04:21;10.10;99.90
14122;DHT22;7139;48.114;11.442;2022-09-17T16:06:54;9.60;99.90
14122;DHT22;7139;48.114;11.442;2022-09-17T16:09:47;10.90;99.90
14122;DHT22;7139;48.114;11.442;2022-09-17T16:12:17;10.60;99.90
14122;DHT22;7139;48.114;11.442;2022-09-17T16:14:46;10.20;99.90
14122;DHT22;7139;48.114;11.442;2022-09-17T16:17:28;10.00;99.90
14122;DHT22;7139;48.114;11.442;2022-09-17T16:19:57;10.10;99.90
14122;DHT22;7139;48.114;11.442;2022-09-17T16:22:26;9.60;99.90
14122;DHT22;7139;48.114;11.442;2022-09-17T16:24:54;9.80;99.90
14122;DHT22;7139;48.114;11.442;2022-09-17T16:27:23;10.40;99.90
14122;DHT22;7139;48.114;11.442;2022-09-17T16:29:51;8.80;99.90
14122;DHT22;7139;48.114;11.442;2022-09-17T16:32:19;9.80;99.90
14122;DHT22;7139;48.114;11.442;2022-09-17T16:34:46;9.80;99.90
14122;DHT22;7139;48.114;11.442;2022-09-17T16:37:13;8.10;99.90
14122;DHT22;7139;48.114;11.442;2022-09-17T16:39:41;9.80;99.90
14122;DHT22;7139;48.114;11.442;2022-09-17T16:42:08;10.20;99.90
14122;DHT22;7139;48.114;11.442;2022-09-17T16:44:35;9.90;99.90
14122;DHT22;7139;48.114;11.442;2022-09-17T16:47:02;9.90;99.90
14122;DHT22;7139;48.114;11.442;2022-09-17T16:51:55;10.00;99.90